sensor_id;sensor_type;location;lat;lon;timestamp;P1;durP1;ratioP1;P2;durP2;ratioP2
18176;SDS011;9213;50.858;3.964;2022-12-22T00:01:52;170.47;;;27.70;;
18176;SDS011;9213;50.858;3.964;2022-12-22T00:04:39;132.47;;;27.63;;
18176;SDS011;9213;50.858;3.964;2022-12-22T00:07:26;105.70;;;25.87;;
18176;SDS011;9213;50.858;3.964;2022-12-22T00:10:10;102.83;;;25.67;;
18176;SDS011;9213;50.858;3.964;2022-12-22T00:12:54;93.10;;;25.53;;
18176;SDS011;9213;50.858;3.964;2022-12-22T00:15:39;110.73;;;26.93;;
18176;SDS011;9213;50.858;3.964;2022-12-22T00:18:23;91.03;;;25.27;;
18176;SDS011;9213;50.858;3.964;2022-12-22T00:21:11;79.00;;;25.73;;
18176;SDS011;9213;50.858;3.964;2022-12-22T00:23:56;87.67;;;27.10;;
18176;SDS011;9213;50.858;3.964;2022-12-22T00:26:42;73.07;;;24.13;;
18176;SDS011;9213;50.858;3.964;2022-12-22T00:29:26;80.43;;;26.10;;
18176;SDS011;9213;50.858;3.964;2022-12-22T00:32:18;70.50;;;23.27;;
18176;SDS011;9213;50.858;3.964;2022-12-22T00:35:03;71.40;;;23.23;;
18176;SDS011;9213;50.858;3.964;2022-12-22T00:37:49;65.40;;;22.80;;
18176;SDS011;9213;50.858;3.964;2022-12-22T00:40:33;64.53;;;23.10;;
18176;SDS011;9213;50.858;3.964;2022-12-22T00:43:17;75.63;;;23.77;;
18176;SDS011;9213;50.858;3.964;2022-12-22T00:46:01;66.50;;;24.00;;
18176;SDS011;9213;50.858;3.964;2022-12-22T00:48:47;72.17;;;24.30;;
18176;SDS011;9213;50.858;3.964;2022-12-22T00:51:32;60.83;;;22.50;;
18176;SDS011;9213;50.858;3.964;2022-12-22T00:54:18;76.60;;;23.70;;
18176;SDS011;9213;50.858;3.964;2022-12-22T00:57:04;80.13;;;22.73;;
18176;SDS011;9213;50.858;3.964;2022-12-22T00:59:49;67.83;;;22.17;;
18176;SDS011;9213;50.858;3.964;2022-12-22T01:02:35;74.97;;;22.53;;
18176;SDS011;9213;50.858;3.964;2022-12-22T01:05:19;83.40;;;22.57;;
18176;SDS011;9213;50.858;3.964;2022-12-22T01:08:04;77.03;;;21.60;;
18176;SDS011;9213;50.858;3.964;2022-12-22T01:10:49;67.77;;;21.27;;
18176;SDS011;9213;50.858;3.964;2022-12-22T01:13:34;74.10;;;21.57;;
18176;SDS011;9213;50.858;3.964;2022-12-22T01:16:18;61.00;;;21.13;;
18176;SDS011;9213;50.858;3.964;2022-12-22T01:19:02;70.57;;;20.60;;
18176;SDS011;9213;50.858;3.964;2022-12-22T01:21:47;68.13;;;21.30;;
18176;SDS011;9213;50.858;3.964;2022-12-22T01:24:31;67.37;;;20.77;;
18176;SDS011;9213;50.858;3.964;2022-12-22T01:27:16;61.40;;;20.53;;
18176;SDS011;9213;50.858;3.964;2022-12-22T01:30:01;60.40;;;20.63;;
18176;SDS011;9213;50.858;3.964;2022-12-22T01:32:45;53.80;;;19.73;;
18176;SDS011;9213;50.858;3.964;2022-12-22T01:35:31;73.60;;;20.97;;
18176;SDS011;9213;50.858;3.964;2022-12-22T01:38:17;69.47;;;21.30;;
18176;SDS011;9213;50.858;3.964;2022-12-22T01:41:02;69.77;;;21.97;;
18176;SDS011;9213;50.858;3.964;2022-12-22T01:43:49;64.23;;;20.77;;
18176;SDS011;9213;50.858;3.964;2022-12-22T01:46:35;60.43;;;20.77;;
18176;SDS011;9213;50.858;3.964;2022-12-22T01:49:24;55.03;;;20.80;;
18176;SDS011;9213;50.858;3.964;2022-12-22T01:52:12;66.67;;;21.27;;
18176;SDS011;9213;50.858;3.964;2022-12-22T01:55:00;92.77;;;22.53;;
18176;SDS011;9213;50.858;3.964;2022-12-22T01:57:48;75.37;;;21.63;;
18176;SDS011;9213;50.858;3.964;2022-12-22T02:00:34;95.00;;;22.60;;
18176;SDS011;9213;50.858;3.964;2022-12-22T02:03:19;102.67;;;21.20;;
18176;SDS011;9213;50.858;3.964;2022-12-22T02:06:11;95.63;;;21.30;;
18176;SDS011;9213;50.858;3.964;2022-12-22T02:09:06;96.03;;;21.47;;
18176;SDS011;9213;50.858;3.964;2022-12-22T02:12:01;103.50;;;20.97;;
18176;SDS011;9213;50.858;3.964;2022-12-22T02:14:54;112.20;;;21.83;;
18176;SDS011;9213;50.858;3.964;2022-12-22T02:17:47;84.83;;;20.90;;
18176;SDS011;9213;50.858;3.964;2022-12-22T02:20:41;110.87;;;22.27;;
18176;SDS011;9213;50.858;3.964;2022-12-22T02:23:45;158.37;;;24.33;;
18176;SDS011;9213;50.858;3.964;2022-12-22T02:26:37;166.20;;;24.07;;
18176;SDS011;9213;50.858;3.964;2022-12-22T02:29:27;158.87;;;24.50;;
18176;SDS011;9213;50.858;3.964;2022-12-22T02:32:15;151.80;;;23.33;;
18176;SDS011;9213;50.858;3.964;2022-12-22T02:34:59;89.50;;;21.47;;
18176;SDS011;9213;50.858;3.964;2022-12-22T02:37:45;81.67;;;20.10;;
18176;SDS011;9213;50.858;3.964;2022-12-22T02:40:40;65.53;;;18.23;;
18176;SDS011;9213;50.858;3.964;2022-12-22T02:43:38;75.97;;;18.00;;
18176;SDS011;9213;50.858;3.964;2022-12-22T02:46:37;84.50;;;17.63;;
18176;SDS011;9213;50.858;3.964;2022-12-22T02:49:28;87.20;;;18.70;;
18176;SDS011;9213;50.858;3.964;2022-12-22T02:52:18;68.97;;;17.97;;
18176;SDS011;9213;50.858;3.964;2022-12-22T02:55:09;50.60;;;15.57;;
18176;SDS011;9213;50.858;3.964;2022-12-22T02:57:57;42.47;;;15.10;;
18176;SDS011;9213;50.858;3.964;2022-12-22T03:00:43;48.50;;;14.63;;
18176;SDS011;9213;50.858;3.964;2022-12-22T03:03:28;54.70;;;15.43;;
18176;SDS011;9213;50.858;3.964;2022-12-22T03:06:12;44.27;;;14.73;;
18176;SDS011;9213;50.858;3.964;2022-12-22T03:08:56;59.83;;;16.30;;
18176;SDS011;9213;50.858;3.964;2022-12-22T03:11:41;67.27;;;16.40;;
18176;SDS011;9213;50.858;3.964;2022-12-22T03:14:25;100.57;;;18.03;;
18176;SDS011;9213;50.858;3.964;2022-12-22T03:17:10;115.73;;;17.57;;
18176;SDS011;9213;50.858;3.964;2022-12-22T03:19:55;70.57;;;16.33;;
18176;SDS011;9213;50.858;3.964;2022-12-22T03:22:39;59.47;;;15.60;;
18176;SDS011;9213;50.858;3.964;2022-12-22T03:25:24;76.13;;;14.33;;
18176;SDS011;9213;50.858;3.964;2022-12-22T03:28:08;49.03;;;13.30;;
18176;SDS011;9213;50.858;3.964;2022-12-22T03:30:35;53.40;;;13.37;;
18176;SDS011;9213;50.858;3.964;2022-12-22T03:33:05;47.70;;;12.17;;
18176;SDS011;9213;50.858;3.964;2022-12-22T03:35:32;62.50;;;13.23;;
18176;SDS011;9213;50.858;3.964;2022-12-22T03:37:59;26.57;;;9.43;;
18176;SDS011;9213;50.858;3.964;2022-12-22T03:40:27;18.13;;;7.03;;
18176;SDS011;9213;50.858;3.964;2022-12-22T03:42:55;24.97;;;7.83;;
18176;SDS011;9213;50.858;3.964;2022-12-22T03:45:40;20.60;;;7.83;;
18176;SDS011;9213;50.858;3.964;2022-12-22T03:48:25;24.10;;;8.47;;
18176;SDS011;9213;50.858;3.964;2022-12-22T03:50:52;28.07;;;9.20;;
18176;SDS011;9213;50.858;3.964;2022-12-22T03:53:19;33.33;;;10.93;;
18176;SDS011;9213;50.858;3.964;2022-12-22T03:55:46;33.80;;;10.93;;
18176;SDS011;9213;50.858;3.964;2022-12-22T03:58:13;29.87;;;10.43;;
18176;SDS011;9213;50.858;3.964;2022-12-22T04:00:40;37.57;;;11.73;;
18176;SDS011;9213;50.858;3.964;2022-12-22T04:03:07;44.97;;;12.77;;
18176;SDS011;9213;50.858;3.964;2022-12-22T04:05:35;49.33;;;13.57;;
18176;SDS011;9213;50.858;3.964;2022-12-22T04:08:02;48.60;;;13.70;;
18176;SDS011;9213;50.858;3.964;2022-12-22T04:10:29;50.67;;;13.57;;
18176;SDS011;9213;50.858;3.964;2022-12-22T04:13:13;57.57;;;14.00;;
18176;SDS011;9213;50.858;3.964;2022-12-22T04:15:40;63.50;;;14.57;;
18176;SDS011;9213;50.858;3.964;2022-12-22T04:18:07;66.37;;;15.20;;
18176;SDS011;9213;50.858;3.964;2022-12-22T04:20:35;68.20;;;15.17;;
18176;SDS011;9213;50.858;3.964;2022-12-22T04:23:03;56.80;;;14.97;;
18176;SDS011;9213;50.858;3.964;2022-12-22T04:25:30;72.63;;;16.17;;
18176;SDS011;9213;50.858;3.964;2022-12-22T04:27:57;74.47;;;16.40;;
18176;SDS011;9213;50.858;3.964;2022-12-22T04:30:24;73.40;;;16.17;;
18176;SDS011;9213;50.858;3.964;2022-12-22T04:32:50;82.10;;;16.97;;
18176;SDS011;9213;50.858;3.964;2022-12-22T04:35:17;76.07;;;17.27;;
18176;SDS011;9213;50.858;3.964;2022-12-22T04:37:46;86.90;;;18.07;;
18176;SDS011;9213;50.858;3.964;2022-12-22T04:40:13;85.50;;;19.10;;
18176;SDS011;9213;50.858;3.964;2022-12-22T04:42:40;83.57;;;18.77;;
18176;SDS011;9213;50.858;3.964;2022-12-22T04:45:07;105.57;;;19.60;;
18176;SDS011;9213;50.858;3.964;2022-12-22T04:47:34;96.63;;;20.47;;
18176;SDS011;9213;50.858;3.964;2022-12-22T04:50:01;101.43;;;19.47;;
18176;SDS011;9213;50.858;3.964;2022-12-22T04:52:29;89.80;;;18.50;;
18176;SDS011;9213;50.858;3.964;2022-12-22T04:54:57;80.83;;;18.10;;
18176;SDS011;9213;50.858;3.964;2022-12-22T04:57:24;93.17;;;17.90;;
18176;SDS011;9213;50.858;3.964;2022-12-22T04:59:51;82.73;;;16.80;;
18176;SDS011;9213;50.858;3.964;2022-12-22T05:02:17;86.53;;;17.30;;
18176;SDS011;9213;50.858;3.964;2022-12-22T05:04:44;92.27;;;17.30;;
18176;SDS011;9213;50.858;3.964;2022-12-22T05:07:11;86.67;;;18.10;;
18176;SDS011;9213;50.858;3.964;2022-12-22T05:09:39;77.40;;;17.20;;
18176;SDS011;9213;50.858;3.964;2022-12-22T05:12:07;89.83;;;18.40;;
18176;SDS011;9213;50.858;3.964;2022-12-22T05:14:48;94.33;;;20.57;;
18176;SDS011;9213;50.858;3.964;2022-12-22T05:17:15;100.33;;;20.67;;
18176;SDS011;9213;50.858;3.964;2022-12-22T05:19:41;98.00;;;20.00;;
18176;SDS011;9213;50.858;3.964;2022-12-22T05:22:08;91.80;;;21.43;;
18176;SDS011;9213;50.858;3.964;2022-12-22T05:24:35;100.13;;;21.00;;
18176;SDS011;9213;50.858;3.964;2022-12-22T05:27:02;123.27;;;22.93;;
18176;SDS011;9213;50.858;3.964;2022-12-22T05:29:31;114.13;;;23.13;;
18176;SDS011;9213;50.858;3.964;2022-12-22T05:31:57;123.87;;;24.03;;
18176;SDS011;9213;50.858;3.964;2022-12-22T05:34:24;126.63;;;23.40;;
18176;SDS011;9213;50.858;3.964;2022-12-22T05:36:51;111.03;;;23.90;;
18176;SDS011;9213;50.858;3.964;2022-12-22T05:39:18;115.97;;;25.80;;
18176;SDS011;9213;50.858;3.964;2022-12-22T05:41:45;126.57;;;24.07;;
18176;SDS011;9213;50.858;3.964;2022-12-22T05:44:12;117.93;;;23.87;;
18176;SDS011;9213;50.858;3.964;2022-12-22T05:46:40;119.60;;;23.47;;
18176;SDS011;9213;50.858;3.964;2022-12-22T05:49:07;117.57;;;24.03;;
18176;SDS011;9213;50.858;3.964;2022-12-22T05:51:34;109.80;;;23.23;;
18176;SDS011;9213;50.858;3.964;2022-12-22T05:54:01;122.13;;;24.13;;
18176;SDS011;9213;50.858;3.964;2022-12-22T05:56:28;101.30;;;22.60;;
18176;SDS011;9213;50.858;3.964;2022-12-22T05:58:55;110.93;;;23.93;;
18176;SDS011;9213;50.858;3.964;2022-12-22T06:01:22;96.67;;;23.13;;
18176;SDS011;9213;50.858;3.964;2022-12-22T06:03:50;97.33;;;22.37;;
18176;SDS011;9213;50.858;3.964;2022-12-22T06:06:17;106.37;;;21.80;;
18176;SDS011;9213;50.858;3.964;2022-12-22T06:08:44;94.93;;;22.23;;
18176;SDS011;9213;50.858;3.964;2022-12-22T06:11:11;86.27;;;21.83;;
18176;SDS011;9213;50.858;3.964;2022-12-22T06:13:42;78.17;;;20.63;;
18176;SDS011;9213;50.858;3.964;2022-12-22T06:16:09;79.87;;;20.73;;
18176;SDS011;9213;50.858;3.964;2022-12-22T06:18:36;75.10;;;20.40;;
18176;SDS011;9213;50.858;3.964;2022-12-22T06:21:04;90.23;;;20.67;;
18176;SDS011;9213;50.858;3.964;2022-12-22T06:23:31;92.50;;;22.67;;
18176;SDS011;9213;50.858;3.964;2022-12-22T06:25:58;106.43;;;25.03;;
18176;SDS011;9213;50.858;3.964;2022-12-22T06:28:26;112.00;;;25.17;;
18176;SDS011;9213;50.858;3.964;2022-12-22T06:30:54;142.23;;;27.17;;
18176;SDS011;9213;50.858;3.964;2022-12-22T06:33:21;160.70;;;27.93;;
18176;SDS011;9213;50.858;3.964;2022-12-22T06:35:48;167.50;;;29.93;;
18176;SDS011;9213;50.858;3.964;2022-12-22T06:38:16;189.40;;;30.47;;
18176;SDS011;9213;50.858;3.964;2022-12-22T06:40:43;200.20;;;33.87;;
18176;SDS011;9213;50.858;3.964;2022-12-22T06:43:10;201.87;;;35.17;;
18176;SDS011;9213;50.858;3.964;2022-12-22T06:45:37;198.77;;;34.53;;
18176;SDS011;9213;50.858;3.964;2022-12-22T06:48:05;189.77;;;35.60;;
18176;SDS011;9213;50.858;3.964;2022-12-22T06:50:32;164.53;;;33.97;;
18176;SDS011;9213;50.858;3.964;2022-12-22T06:52:59;179.60;;;33.40;;
18176;SDS011;9213;50.858;3.964;2022-12-22T06:55:28;182.27;;;35.23;;
18176;SDS011;9213;50.858;3.964;2022-12-22T06:57:56;185.23;;;40.10;;
18176;SDS011;9213;50.858;3.964;2022-12-22T07:00:22;222.60;;;39.93;;
18176;SDS011;9213;50.858;3.964;2022-12-22T07:02:50;211.67;;;33.90;;
18176;SDS011;9213;50.858;3.964;2022-12-22T07:05:17;195.80;;;35.10;;
18176;SDS011;9213;50.858;3.964;2022-12-22T07:07:43;183.50;;;32.50;;
18176;SDS011;9213;50.858;3.964;2022-12-22T07:10:10;175.77;;;32.73;;
18176;SDS011;9213;50.858;3.964;2022-12-22T07:12:39;190.33;;;32.63;;
18176;SDS011;9213;50.858;3.964;2022-12-22T07:15:06;161.07;;;29.37;;
18176;SDS011;9213;50.858;3.964;2022-12-22T07:17:34;162.13;;;31.07;;
18176;SDS011;9213;50.858;3.964;2022-12-22T07:20:01;142.67;;;29.63;;
18176;SDS011;9213;50.858;3.964;2022-12-22T07:22:29;165.83;;;29.90;;
18176;SDS011;9213;50.858;3.964;2022-12-22T07:24:55;149.60;;;27.83;;
18176;SDS011;9213;50.858;3.964;2022-12-22T07:27:22;128.23;;;26.90;;
18176;SDS011;9213;50.858;3.964;2022-12-22T07:29:51;132.63;;;28.27;;
18176;SDS011;9213;50.858;3.964;2022-12-22T07:32:18;122.57;;;27.73;;
18176;SDS011;9213;50.858;3.964;2022-12-22T07:34:45;128.63;;;30.57;;
18176;SDS011;9213;50.858;3.964;2022-12-22T07:37:11;135.27;;;30.93;;
18176;SDS011;9213;50.858;3.964;2022-12-22T07:39:38;144.13;;;31.70;;
18176;SDS011;9213;50.858;3.964;2022-12-22T07:42:05;133.60;;;29.87;;
18176;SDS011;9213;50.858;3.964;2022-12-22T07:44:51;160.47;;;32.17;;
18176;SDS011;9213;50.858;3.964;2022-12-22T07:47:18;163.07;;;31.00;;
18176;SDS011;9213;50.858;3.964;2022-12-22T07:49:45;176.07;;;32.93;;
18176;SDS011;9213;50.858;3.964;2022-12-22T07:52:29;177.50;;;32.80;;
18176;SDS011;9213;50.858;3.964;2022-12-22T07:54:56;155.57;;;32.97;;
18176;SDS011;9213;50.858;3.964;2022-12-22T07:57:23;177.90;;;33.53;;
18176;SDS011;9213;50.858;3.964;2022-12-22T07:59:52;149.17;;;31.00;;
18176;SDS011;9213;50.858;3.964;2022-12-22T08:02:19;134.10;;;29.33;;
18176;SDS011;9213;50.858;3.964;2022-12-22T08:04:46;107.37;;;26.63;;
18176;SDS011;9213;50.858;3.964;2022-12-22T08:07:13;108.00;;;25.30;;
18176;SDS011;9213;50.858;3.964;2022-12-22T08:09:40;93.03;;;24.60;;
18176;SDS011;9213;50.858;3.964;2022-12-22T08:12:07;88.60;;;25.50;;
18176;SDS011;9213;50.858;3.964;2022-12-22T08:14:34;83.93;;;24.57;;
18176;SDS011;9213;50.858;3.964;2022-12-22T08:17:02;87.70;;;25.27;;
18176;SDS011;9213;50.858;3.964;2022-12-22T08:19:29;68.73;;;23.13;;
18176;SDS011;9213;50.858;3.964;2022-12-22T08:21:56;85.00;;;23.27;;
18176;SDS011;9213;50.858;3.964;2022-12-22T08:24:24;76.83;;;25.20;;
18176;SDS011;9213;50.858;3.964;2022-12-22T08:26:52;86.93;;;25.60;;
18176;SDS011;9213;50.858;3.964;2022-12-22T08:29:22;76.70;;;24.97;;
18176;SDS011;9213;50.858;3.964;2022-12-22T08:31:53;82.63;;;25.37;;
18176;SDS011;9213;50.858;3.964;2022-12-22T08:34:22;84.63;;;26.07;;
18176;SDS011;9213;50.858;3.964;2022-12-22T08:36:50;73.33;;;25.33;;
18176;SDS011;9213;50.858;3.964;2022-12-22T08:39:20;65.70;;;23.60;;
18176;SDS011;9213;50.858;3.964;2022-12-22T08:41:48;67.70;;;23.63;;
18176;SDS011;9213;50.858;3.964;2022-12-22T08:44:15;65.23;;;24.47;;
18176;SDS011;9213;50.858;3.964;2022-12-22T08:46:44;52.27;;;21.03;;
18176;SDS011;9213;50.858;3.964;2022-12-22T08:49:11;59.30;;;22.40;;
18176;SDS011;9213;50.858;3.964;2022-12-22T08:51:39;51.60;;;21.13;;
18176;SDS011;9213;50.858;3.964;2022-12-22T08:54:06;55.57;;;22.47;;
18176;SDS011;9213;50.858;3.964;2022-12-22T08:56:34;55.93;;;21.63;;
18176;SDS011;9213;50.858;3.964;2022-12-22T08:59:01;63.47;;;22.43;;
18176;SDS011;9213;50.858;3.964;2022-12-22T09:01:32;61.07;;;24.07;;
18176;SDS011;9213;50.858;3.964;2022-12-22T09:04:00;57.07;;;23.53;;
18176;SDS011;9213;50.858;3.964;2022-12-22T09:06:28;59.63;;;23.93;;
18176;SDS011;9213;50.858;3.964;2022-12-22T09:08:57;67.20;;;26.00;;
18176;SDS011;9213;50.858;3.964;2022-12-22T09:11:24;69.07;;;26.20;;
18176;SDS011;9213;50.858;3.964;2022-12-22T09:13:52;68.03;;;28.07;;
18176;SDS011;9213;50.858;3.964;2022-12-22T09:16:21;66.27;;;28.50;;
18176;SDS011;9213;50.858;3.964;2022-12-22T09:18:49;68.67;;;27.80;;
18176;SDS011;9213;50.858;3.964;2022-12-22T09:21:16;70.77;;;30.10;;
18176;SDS011;9213;50.858;3.964;2022-12-22T09:23:44;74.73;;;30.73;;
18176;SDS011;9213;50.858;3.964;2022-12-22T09:26:13;81.13;;;31.27;;
18176;SDS011;9213;50.858;3.964;2022-12-22T09:28:41;71.20;;;32.60;;
18176;SDS011;9213;50.858;3.964;2022-12-22T09:31:09;66.07;;;29.93;;
18176;SDS011;9213;50.858;3.964;2022-12-22T09:33:37;62.97;;;30.10;;
18176;SDS011;9213;50.858;3.964;2022-12-22T09:36:04;64.23;;;29.30;;
18176;SDS011;9213;50.858;3.964;2022-12-22T09:38:32;57.37;;;27.30;;
18176;SDS011;9213;50.858;3.964;2022-12-22T09:41:05;55.53;;;29.60;;
18176;SDS011;9213;50.858;3.964;2022-12-22T09:43:34;55.80;;;27.97;;
18176;SDS011;9213;50.858;3.964;2022-12-22T09:46:01;52.10;;;26.33;;
18176;SDS011;9213;50.858;3.964;2022-12-22T09:48:30;58.90;;;28.87;;
18176;SDS011;9213;50.858;3.964;2022-12-22T09:51:00;53.40;;;28.13;;
18176;SDS011;9213;50.858;3.964;2022-12-22T09:53:28;63.53;;;29.57;;
18176;SDS011;9213;50.858;3.964;2022-12-22T09:55:56;43.97;;;25.90;;
18176;SDS011;9213;50.858;3.964;2022-12-22T09:58:24;40.20;;;23.33;;
18176;SDS011;9213;50.858;3.964;2022-12-22T10:00:54;39.30;;;20.73;;
18176;SDS011;9213;50.858;3.964;2022-12-22T10:03:29;35.03;;;20.83;;
18176;SDS011;9213;50.858;3.964;2022-12-22T10:06:03;31.47;;;19.20;;
18176;SDS011;9213;50.858;3.964;2022-12-22T10:08:35;33.90;;;17.67;;
18176;SDS011;9213;50.858;3.964;2022-12-22T10:11:04;30.00;;;17.70;;
18176;SDS011;9213;50.858;3.964;2022-12-22T10:13:32;30.20;;;17.23;;
18176;SDS011;9213;50.858;3.964;2022-12-22T10:16:00;28.03;;;16.83;;
18176;SDS011;9213;50.858;3.964;2022-12-22T10:18:28;23.00;;;15.47;;
18176;SDS011;9213;50.858;3.964;2022-12-22T10:21:08;26.90;;;15.43;;
18176;SDS011;9213;50.858;3.964;2022-12-22T10:23:37;19.00;;;12.43;;
18176;SDS011;9213;50.858;3.964;2022-12-22T10:26:08;21.40;;;13.60;;
18176;SDS011;9213;50.858;3.964;2022-12-22T10:28:37;23.43;;;13.40;;
18176;SDS011;9213;50.858;3.964;2022-12-22T10:31:11;21.03;;;11.23;;
18176;SDS011;9213;50.858;3.964;2022-12-22T10:33:41;16.87;;;10.90;;
18176;SDS011;9213;50.858;3.964;2022-12-22T10:36:09;17.80;;;11.33;;
18176;SDS011;9213;50.858;3.964;2022-12-22T10:38:38;18.23;;;11.03;;
18176;SDS011;9213;50.858;3.964;2022-12-22T10:41:18;18.47;;;11.70;;
18176;SDS011;9213;50.858;3.964;2022-12-22T10:43:48;15.70;;;10.47;;
18176;SDS011;9213;50.858;3.964;2022-12-22T10:46:18;17.70;;;10.70;;
18176;SDS011;9213;50.858;3.964;2022-12-22T10:49:04;15.00;;;9.40;;
18176;SDS011;9213;50.858;3.964;2022-12-22T10:51:35;10.87;;;8.53;;
18176;SDS011;9213;50.858;3.964;2022-12-22T10:54:03;10.60;;;8.17;;
18176;SDS011;9213;50.858;3.964;2022-12-22T10:56:31;11.00;;;8.03;;
18176;SDS011;9213;50.858;3.964;2022-12-22T10:59:03;13.27;;;9.17;;
18176;SDS011;9213;50.858;3.964;2022-12-22T11:01:42;18.63;;;10.30;;
18176;SDS011;9213;50.858;3.964;2022-12-22T11:04:16;17.60;;;11.13;;
18176;SDS011;9213;50.858;3.964;2022-12-22T11:06:47;17.93;;;11.37;;
18176;SDS011;9213;50.858;3.964;2022-12-22T11:09:14;20.90;;;12.00;;
18176;SDS011;9213;50.858;3.964;2022-12-22T11:11:44;20.93;;;12.17;;
18176;SDS011;9213;50.858;3.964;2022-12-22T11:14:18;19.20;;;10.87;;
18176;SDS011;9213;50.858;3.964;2022-12-22T11:16:57;20.27;;;11.37;;
18176;SDS011;9213;50.858;3.964;2022-12-22T11:19:35;14.40;;;10.30;;
18176;SDS011;9213;50.858;3.964;2022-12-22T11:22:15;13.53;;;8.87;;
18176;SDS011;9213;50.858;3.964;2022-12-22T11:24:51;12.63;;;8.63;;
18176;SDS011;9213;50.858;3.964;2022-12-22T11:27:30;13.40;;;8.37;;
18176;SDS011;9213;50.858;3.964;2022-12-22T11:30:08;10.53;;;8.30;;
18176;SDS011;9213;50.858;3.964;2022-12-22T11:35:51;11.43;;;8.77;;
18176;SDS011;9213;50.858;3.964;2022-12-22T11:38:26;10.47;;;8.43;;
18176;SDS011;9213;50.858;3.964;2022-12-22T11:41:12;12.60;;;7.77;;
18176;SDS011;9213;50.858;3.964;2022-12-22T11:43:53;8.83;;;7.33;;
18176;SDS011;9213;50.858;3.964;2022-12-22T11:46:31;13.60;;;7.20;;
18176;SDS011;9213;50.858;3.964;2022-12-22T11:49:15;9.30;;;6.87;;
18176;SDS011;9213;50.858;3.964;2022-12-22T11:51:59;9.50;;;6.07;;
18176;SDS011;9213;50.858;3.964;2022-12-22T11:54:38;8.40;;;6.07;;
18176;SDS011;9213;50.858;3.964;2022-12-22T11:57:17;7.80;;;6.07;;
18176;SDS011;9213;50.858;3.964;2022-12-22T11:59:54;7.37;;;5.63;;
18176;SDS011;9213;50.858;3.964;2022-12-22T12:05:31;9.93;;;5.57;;
18176;SDS011;9213;50.858;3.964;2022-12-22T12:08:12;6.50;;;4.97;;
18176;SDS011;9213;50.858;3.964;2022-12-22T12:10:50;9.20;;;5.37;;
18176;SDS011;9213;50.858;3.964;2022-12-22T12:13:23;10.73;;;5.87;;
18176;SDS011;9213;50.858;3.964;2022-12-22T12:16:00;6.33;;;5.73;;
18176;SDS011;9213;50.858;3.964;2022-12-22T12:18:41;5.80;;;5.17;;
18176;SDS011;9213;50.858;3.964;2022-12-22T12:21:22;8.00;;;5.20;;
18176;SDS011;9213;50.858;3.964;2022-12-22T12:24:14;8.50;;;5.40;;
18176;SDS011;9213;50.858;3.964;2022-12-22T12:26:53;7.57;;;5.10;;
18176;SDS011;9213;50.858;3.964;2022-12-22T12:29:27;8.37;;;5.43;;
18176;SDS011;9213;50.858;3.964;2022-12-22T12:31:59;7.60;;;5.43;;
18176;SDS011;9213;50.858;3.964;2022-12-22T12:34:31;9.37;;;5.23;;
18176;SDS011;9213;50.858;3.964;2022-12-22T12:37:02;9.63;;;5.50;;
18176;SDS011;9213;50.858;3.964;2022-12-22T12:39:37;8.03;;;5.97;;
18176;SDS011;9213;50.858;3.964;2022-12-22T12:42:14;9.07;;;6.30;;
18176;SDS011;9213;50.858;3.964;2022-12-22T12:44:51;11.00;;;6.97;;
18176;SDS011;9213;50.858;3.964;2022-12-22T12:47:23;10.67;;;6.87;;
18176;SDS011;9213;50.858;3.964;2022-12-22T12:49:52;11.40;;;6.50;;
18176;SDS011;9213;50.858;3.964;2022-12-22T12:55:32;9.00;;;6.53;;
18176;SDS011;9213;50.858;3.964;2022-12-22T13:10:38;13.07;;;8.13;;
18176;SDS011;9213;50.858;3.964;2022-12-22T13:13:08;13.80;;;7.27;;
18176;SDS011;9213;50.858;3.964;2022-12-22T13:15:38;11.90;;;7.60;;
18176;SDS011;9213;50.858;3.964;2022-12-22T13:18:08;11.47;;;7.53;;
18176;SDS011;9213;50.858;3.964;2022-12-22T13:20:52;12.60;;;8.33;;
18176;SDS011;9213;50.858;3.964;2022-12-22T13:23:21;15.67;;;8.53;;
18176;SDS011;9213;50.858;3.964;2022-12-22T13:25:50;11.17;;;8.63;;
18176;SDS011;9213;50.858;3.964;2022-12-22T13:28:20;14.80;;;9.40;;
18176;SDS011;9213;50.858;3.964;2022-12-22T13:30:49;12.90;;;8.80;;
18176;SDS011;9213;50.858;3.964;2022-12-22T13:33:21;18.80;;;9.70;;
18176;SDS011;9213;50.858;3.964;2022-12-22T13:35:52;17.20;;;10.67;;
18176;SDS011;9213;50.858;3.964;2022-12-22T13:38:25;17.27;;;9.83;;
18176;SDS011;9213;50.858;3.964;2022-12-22T13:40:55;28.47;;;10.93;;
18176;SDS011;9213;50.858;3.964;2022-12-22T13:43:23;18.53;;;10.23;;
18176;SDS011;9213;50.858;3.964;2022-12-22T13:45:53;18.10;;;10.80;;
18176;SDS011;9213;50.858;3.964;2022-12-22T13:48:23;28.07;;;10.77;;
18176;SDS011;9213;50.858;3.964;2022-12-22T13:50:55;27.23;;;10.70;;
18176;SDS011;9213;50.858;3.964;2022-12-22T13:53:27;25.30;;;10.87;;
18176;SDS011;9213;50.858;3.964;2022-12-22T13:55:59;26.83;;;11.13;;
18176;SDS011;9213;50.858;3.964;2022-12-22T13:58:27;21.63;;;10.43;;
18176;SDS011;9213;50.858;3.964;2022-12-22T14:00:59;21.30;;;10.57;;
18176;SDS011;9213;50.858;3.964;2022-12-22T14:03:27;26.60;;;10.57;;
18176;SDS011;9213;50.858;3.964;2022-12-22T14:05:55;28.70;;;10.03;;
18176;SDS011;9213;50.858;3.964;2022-12-22T14:08:22;26.00;;;11.40;;
18176;SDS011;9213;50.858;3.964;2022-12-22T14:10:49;24.17;;;10.47;;
18176;SDS011;9213;50.858;3.964;2022-12-22T14:13:21;31.73;;;11.53;;
18176;SDS011;9213;50.858;3.964;2022-12-22T14:15:58;30.37;;;10.40;;
18176;SDS011;9213;50.858;3.964;2022-12-22T14:18:26;28.93;;;10.20;;
18176;SDS011;9213;50.858;3.964;2022-12-22T14:20:54;32.90;;;10.70;;
18176;SDS011;9213;50.858;3.964;2022-12-22T14:23:23;21.73;;;9.10;;
18176;SDS011;9213;50.858;3.964;2022-12-22T14:25:53;32.83;;;9.33;;
18176;SDS011;9213;50.858;3.964;2022-12-22T14:28:23;32.03;;;10.67;;
18176;SDS011;9213;50.858;3.964;2022-12-22T14:30:53;24.17;;;8.60;;
18176;SDS011;9213;50.858;3.964;2022-12-22T14:33:26;21.13;;;8.23;;
18176;SDS011;9213;50.858;3.964;2022-12-22T14:36:05;41.20;;;9.77;;
18176;SDS011;9213;50.858;3.964;2022-12-22T14:38:40;38.40;;;8.87;;
18176;SDS011;9213;50.858;3.964;2022-12-22T14:41:09;37.90;;;8.90;;
18176;SDS011;9213;50.858;3.964;2022-12-22T14:43:59;34.67;;;8.33;;
18176;SDS011;9213;50.858;3.964;2022-12-22T14:46:27;28.30;;;8.67;;
18176;SDS011;9213;50.858;3.964;2022-12-22T14:48:54;45.80;;;9.07;;
18176;SDS011;9213;50.858;3.964;2022-12-22T14:51:24;40.63;;;8.90;;
18176;SDS011;9213;50.858;3.964;2022-12-22T14:53:52;36.87;;;8.13;;
18176;SDS011;9213;50.858;3.964;2022-12-22T14:56:21;44.43;;;8.73;;
18176;SDS011;9213;50.858;3.964;2022-12-22T14:58:49;29.63;;;10.00;;
18176;SDS011;9213;50.858;3.964;2022-12-22T15:01:19;41.23;;;9.20;;
18176;SDS011;9213;50.858;3.964;2022-12-22T15:03:59;41.33;;;8.53;;
18176;SDS011;9213;50.858;3.964;2022-12-22T15:06:32;50.73;;;9.17;;
18176;SDS011;9213;50.858;3.964;2022-12-22T15:09:20;59.27;;;10.43;;
18176;SDS011;9213;50.858;3.964;2022-12-22T15:12:01;42.40;;;9.87;;
18176;SDS011;9213;50.858;3.964;2022-12-22T15:14:32;44.87;;;9.80;;
18176;SDS011;9213;50.858;3.964;2022-12-22T15:17:03;49.73;;;9.40;;
18176;SDS011;9213;50.858;3.964;2022-12-22T15:19:32;51.00;;;9.23;;
18176;SDS011;9213;50.858;3.964;2022-12-22T15:22:00;51.87;;;9.53;;
18176;SDS011;9213;50.858;3.964;2022-12-22T15:24:27;60.20;;;10.23;;
18176;SDS011;9213;50.858;3.964;2022-12-22T15:26:54;48.77;;;8.73;;
18176;SDS011;9213;50.858;3.964;2022-12-22T15:29:21;57.77;;;9.67;;
18176;SDS011;9213;50.858;3.964;2022-12-22T15:31:48;59.07;;;9.40;;
18176;SDS011;9213;50.858;3.964;2022-12-22T15:34:17;61.00;;;9.30;;
18176;SDS011;9213;50.858;3.964;2022-12-22T15:36:48;63.87;;;10.80;;